createdAt,value
2018-07-22T00:00:47.337Z,1008.29
2018-07-22T00:01:47.336Z,1008.35
2018-07-22T00:02:47.331Z,1008.34
2018-07-22T00:03:47.331Z,1008.33
2018-07-22T00:04:47.335Z,1008.33
2018-07-22T00:05:47.335Z,1008.38
2018-07-22T00:06:47.329Z,1008.35
2018-07-22T00:07:47.329Z,1008.41
2018-07-22T00:08:47.329Z,1008.41
2018-07-22T00:09:47.329Z,1008.39
2018-07-22T00:10:47.334Z,1008.41
2018-07-22T00:11:47.333Z,1008.42
2018-07-22T00:12:47.335Z,1008.42
2018-07-22T00:13:47.332Z,1008.44
2018-07-22T00:14:47.326Z,1008.49
2018-07-22T00:15:47.327Z,1008.50
2018-07-22T00:16:47.330Z,1008.46
2018-07-22T00:17:47.324Z,1008.46
2018-07-22T00:18:47.328Z,1008.49
2018-07-22T00:19:47.328Z,1008.50
2018-07-22T00:20:47.326Z,1008.50
2018-07-22T00:21:47.322Z,1008.49
2018-07-22T00:22:47.327Z,1008.48
2018-07-22T00:23:47.326Z,1008.52
2018-07-22T00:24:47.327Z,1008.53
2018-07-22T00:25:47.326Z,1008.53
2018-07-22T00:26:47.321Z,1008.50
2018-07-22T00:27:47.321Z,1008.46
2018-07-22T00:28:47.319Z,1008.52
2018-07-22T00:29:47.318Z,1008.52
2018-07-22T00:30:47.322Z,1008.49
2018-07-22T00:31:47.323Z,1008.50
2018-07-22T00:32:47.322Z,1008.54
2018-07-22T00:33:47.320Z,1008.52
2018-07-22T00:34:47.315Z,1008.48
2018-07-22T00:35:47.318Z,1008.52
2018-07-22T00:36:47.318Z,1008.48
2018-07-22T00:37:47.318Z,1008.53
2018-07-22T00:38:47.314Z,1008.48
2018-07-22T00:39:47.314Z,1008.48
2018-07-22T00:40:47.312Z,1008.48
2018-07-22T00:41:47.310Z,1008.47
2018-07-22T00:42:47.316Z,1008.49
2018-07-22T00:43:47.315Z,1008.47
2018-07-22T00:44:47.314Z,1008.55
2018-07-22T00:45:47.314Z,1008.57
2018-07-22T00:46:47.307Z,1008.51
2018-07-22T00:47:47.306Z,1008.52
2018-07-22T00:48:47.307Z,1008.55
2018-07-22T00:49:47.305Z,1008.53
2018-07-22T00:50:47.310Z,1008.50
2018-07-22T00:51:47.308Z,1008.50
2018-07-22T00:52:47.303Z,1008.48
2018-07-22T00:53:47.303Z,1008.51
2018-07-22T00:54:47.307Z,1008.50
2018-07-22T00:55:47.307Z,1008.50
2018-07-22T00:56:47.307Z,1008.54
2018-07-22T00:57:47.305Z,1008.53
2018-07-22T00:58:47.299Z,1008.53
2018-07-22T00:59:47.308Z,1008.54
2018-07-22T01:00:47.298Z,1008.53
2018-07-22T01:01:47.296Z,1008.58
2018-07-22T01:02:47.301Z,1008.57
2018-07-22T01:03:47.300Z,1008.61
2018-07-22T01:04:47.300Z,1008.58
2018-07-22T01:05:47.299Z,1008.63
2018-07-22T01:06:47.293Z,1008.56
2018-07-22T01:07:47.293Z,1008.63
2018-07-22T01:08:47.298Z,1008.59
2018-07-22T01:09:47.297Z,1008.61
2018-07-22T01:10:47.294Z,1008.59
2018-07-22T01:11:47.290Z,1008.57
2018-07-22T01:12:47.289Z,1008.55
2018-07-22T01:13:47.287Z,1008.55
2018-07-22T01:14:47.291Z,1008.59
2018-07-22T01:15:47.292Z,1008.60
2018-07-22T01:16:47.293Z,1008.58
2018-07-22T01:17:47.288Z,1008.58
2018-07-22T01:18:47.283Z,1008.63
2018-07-22T01:19:47.283Z,1008.61
2018-07-22T01:20:47.282Z,1008.61
2018-07-22T01:21:47.282Z,1008.60
2018-07-22T01:22:47.286Z,1008.59
2018-07-22T01:23:47.289Z,1008.63
2018-07-22T01:24:47.279Z,1008.60
2018-07-22T01:25:47.281Z,1008.58
2018-07-22T01:26:47.283Z,1008.55
2018-07-22T01:27:47.282Z,1008.59
2018-07-22T01:28:47.280Z,1008.57
2018-07-22T01:29:47.279Z,1008.53
2018-07-22T01:30:47.273Z,1008.51
2018-07-22T01:31:47.272Z,1008.54
2018-07-22T01:32:47.272Z,1008.52
2018-07-22T01:33:47.271Z,1008.50
2018-07-22T01:34:47.274Z,1008.49
2018-07-22T01:35:47.273Z,1008.49
2018-07-22T01:36:47.274Z,1008.57
2018-07-22T01:37:47.271Z,1008.55
2018-07-22T01:38:47.267Z,1008.57
2018-07-22T01:39:47.266Z,1008.55
2018-07-22T01:40:47.271Z,1008.59
2018-07-22T01:41:47.269Z,1008.59
2018-07-22T01:42:47.263Z,1008.62
2018-07-22T01:43:47.262Z,1008.61
2018-07-22T01:44:47.261Z,1008.61
2018-07-22T01:45:47.260Z,1008.61
2018-07-22T01:46:47.264Z,1008.67
2018-07-22T01:47:47.263Z,1008.61
2018-07-22T01:48:47.261Z,1008.62
2018-07-22T01:49:47.260Z,1008.61
2018-07-22T01:50:47.255Z,1008.60
2018-07-22T01:51:47.256Z,1008.61
2018-07-22T01:52:47.254Z,1008.59
2018-07-22T01:53:47.252Z,1008.59
2018-07-22T01:54:47.257Z,1008.61
2018-07-22T01:55:47.256Z,1008.62
2018-07-22T01:56:47.250Z,1008.62
2018-07-22T01:57:47.255Z,1008.61
2018-07-22T01:58:47.252Z,1008.61
2018-07-22T01:59:47.253Z,1008.69
2018-07-22T02:00:47.251Z,1008.67
2018-07-22T02:01:47.249Z,1008.67
2018-07-22T02:02:47.243Z,1008.65
2018-07-22T02:03:47.241Z,1008.65
2018-07-22T02:04:47.241Z,1008.61
2018-07-22T02:05:47.239Z,1008.59
2018-07-22T02:06:47.243Z,1008.65
2018-07-22T02:07:47.245Z,1008.63
2018-07-22T02:08:47.242Z,1008.58
2018-07-22T02:09:47.240Z,1008.62
2018-07-22T02:10:47.235Z,1008.67
2018-07-22T02:11:47.234Z,1008.65
2018-07-22T02:12:47.238Z,1008.62
2018-07-22T02:13:47.238Z,1008.61
2018-07-22T02:14:47.230Z,1008.66
2018-07-22T02:15:47.230Z,1008.67
2018-07-22T02:16:47.228Z,1008.68
2018-07-22T02:17:47.226Z,1008.64
2018-07-22T02:18:47.229Z,1008.66
2018-07-22T02:19:47.229Z,1008.64
2018-07-22T02:20:47.277Z,1008.67
2018-07-22T02:21:47.228Z,1008.69
2018-07-22T02:22:47.220Z,1008.71
2018-07-22T02:23:47.219Z,1008.69
2018-07-22T02:24:47.221Z,1008.69
2018-07-22T02:25:47.217Z,1008.71
2018-07-22T02:26:47.220Z,1008.77
2018-07-22T02:27:47.220Z,1008.76
2018-07-22T02:28:47.214Z,1008.76
2018-07-22T02:29:47.211Z,1008.79
2018-07-22T02:30:47.218Z,1008.79
2018-07-22T02:31:47.217Z,1008.80
2018-07-22T02:32:47.214Z,1008.80
2018-07-22T02:33:47.212Z,1008.82
2018-07-22T02:34:47.206Z,1008.80
2018-07-22T02:35:47.204Z,1008.79
2018-07-22T02:36:47.203Z,1008.81
2018-07-22T02:37:47.202Z,1008.76
2018-07-22T02:38:47.206Z,1008.77
2018-07-22T02:39:47.208Z,1008.84
2018-07-22T02:40:47.204Z,1008.79
2018-07-22T02:41:47.201Z,1008.79
2018-07-22T02:42:47.195Z,1008.80
2018-07-22T02:43:47.196Z,1008.79
2018-07-22T02:44:47.198Z,1008.80
2018-07-22T02:45:47.196Z,1008.78
2018-07-22T02:46:47.191Z,1008.76
2018-07-22T02:47:47.188Z,1008.70
2018-07-22T02:48:47.188Z,1008.75
2018-07-22T02:49:47.192Z,1008.77
2018-07-22T02:50:47.190Z,1008.73
2018-07-22T02:51:47.188Z,1008.75
2018-07-22T02:52:47.187Z,1008.74
2018-07-22T02:53:47.185Z,1008.74
2018-07-22T02:54:47.180Z,1008.72
2018-07-22T02:55:47.180Z,1008.75
2018-07-22T02:56:47.177Z,1008.78
2018-07-22T02:57:47.177Z,1008.80
2018-07-22T02:58:47.179Z,1008.79
2018-07-22T02:59:47.178Z,1008.76
2018-07-22T03:00:47.171Z,1008.78
2018-07-22T03:01:47.171Z,1008.78
2018-07-22T03:02:47.174Z,1008.81
2018-07-22T03:03:47.172Z,1008.80
2018-07-22T03:04:47.171Z,1008.83
2018-07-22T03:05:47.169Z,1008.84
2018-07-22T03:06:47.162Z,1008.78
2018-07-22T03:07:47.162Z,1008.81
2018-07-22T03:08:47.160Z,1008.81
2018-07-22T03:09:47.158Z,1008.84
2018-07-22T03:10:47.161Z,1008.80
2018-07-22T03:11:47.160Z,1008.84
2018-07-22T03:12:47.161Z,1008.80
2018-07-22T03:13:47.155Z,1008.83
2018-07-22T03:14:47.151Z,1008.86
2018-07-22T03:15:47.149Z,1008.87
2018-07-22T03:16:47.152Z,1008.84
2018-07-22T03:17:47.150Z,1008.84
2018-07-22T03:18:47.144Z,1008.85
2018-07-22T03:19:47.143Z,1008.86
2018-07-22T03:20:47.141Z,1008.90
2018-07-22T03:21:47.144Z,1008.85
2018-07-22T03:22:47.143Z,1008.90
2018-07-22T03:23:47.141Z,1008.90
2018-07-22T03:24:47.155Z,1008.94
2018-07-22T03:25:47.137Z,1008.95
2018-07-22T03:26:47.131Z,1008.91
2018-07-22T03:27:47.129Z,1008.95
2018-07-22T03:28:47.127Z,1008.98
2018-07-22T03:29:47.125Z,1008.98
2018-07-22T03:30:47.128Z,1009.05
2018-07-22T03:31:47.127Z,1009.02
2018-07-22T03:32:47.123Z,1009.03
2018-07-22T03:33:47.121Z,1009.05
2018-07-22T03:34:47.121Z,1009.05
2018-07-22T03:35:47.120Z,1009.08
2018-07-22T03:36:47.119Z,1009.12
2018-07-22T03:37:47.116Z,1009.14
2018-07-22T03:38:47.110Z,1009.13
2018-07-22T03:39:47.109Z,1009.13
2018-07-22T03:40:47.109Z,1009.17
2018-07-22T03:41:47.110Z,1009.16
2018-07-22T03:42:47.109Z,1009.19
2018-07-22T03:43:47.106Z,1009.18
2018-07-22T03:44:47.104Z,1009.21
2018-07-22T03:45:47.103Z,1009.22
2018-07-22T03:46:47.097Z,1009.22
2018-07-22T03:47:47.095Z,1009.23
2018-07-22T03:48:47.098Z,1009.26
2018-07-22T03:49:47.094Z,1009.27
2018-07-22T03:50:47.089Z,1009.30
2018-07-22T03:51:47.087Z,1009.27
2018-07-22T03:52:47.085Z,1009.28
2018-07-22T03:53:47.083Z,1009.31
2018-07-22T03:54:47.087Z,1009.31
2018-07-22T03:55:47.084Z,1009.30
2018-07-22T03:56:47.084Z,1009.29
2018-07-22T03:57:47.081Z,1009.33
2018-07-22T03:58:47.074Z,1009.28
2018-07-22T03:59:47.071Z,1009.34
2018-07-22T04:00:47.070Z,1009.34
2018-07-22T04:01:47.068Z,1009.36
2018-07-22T04:02:47.070Z,1009.36
2018-07-22T04:03:47.069Z,1009.35
2018-07-22T04:04:47.062Z,1009.35
2018-07-22T04:05:47.060Z,1009.38
2018-07-22T04:06:47.063Z,1009.36
2018-07-22T04:07:47.062Z,1009.39
2018-07-22T04:08:47.060Z,1009.35
2018-07-22T04:09:47.058Z,1009.40
2018-07-22T04:10:47.051Z,1009.41
2018-07-22T04:11:47.049Z,1009.45
2018-07-22T04:12:47.047Z,1009.48
2018-07-22T04:13:47.046Z,1009.44
2018-07-22T04:14:47.050Z,1009.41
2018-07-22T04:15:47.045Z,1009.49
2018-07-22T04:16:47.044Z,1009.48
2018-07-22T04:17:47.042Z,1009.48
2018-07-22T04:18:47.037Z,1009.49
2018-07-22T04:19:47.034Z,1009.50
2018-07-22T04:20:47.037Z,1009.49
2018-07-22T04:21:47.035Z,1009.53
2018-07-22T04:22:47.033Z,1009.53
2018-07-22T04:23:47.029Z,1009.50
2018-07-22T04:24:47.040Z,1009.49
2018-07-22T04:25:47.023Z,1009.51
2018-07-22T04:26:47.025Z,1009.53
2018-07-22T04:27:47.026Z,1009.48
2018-07-22T04:28:47.024Z,1009.55
2018-07-22T04:29:47.025Z,1009.49
2018-07-22T04:30:47.015Z,1009.56
2018-07-22T04:31:47.012Z,1009.53
2018-07-22T04:32:47.012Z,1009.52
2018-07-22T04:33:47.009Z,1009.54
2018-07-22T04:34:47.015Z,1009.56
2018-07-22T04:35:47.011Z,1009.56
2018-07-22T04:36:47.005Z,1009.58
2018-07-22T04:37:47.001Z,1009.60
2018-07-22T04:38:47.006Z,1009.59
2018-07-22T04:39:47.007Z,1009.62
2018-07-22T04:40:47.033Z,1009.67
2018-07-22T04:41:47.001Z,1009.61
2018-07-22T04:42:46.993Z,1009.65
2018-07-22T04:43:46.993Z,1009.67
2018-07-22T04:44:46.991Z,1009.74
2018-07-22T04:45:46.990Z,1009.78
2018-07-22T04:46:46.991Z,1009.71
2018-07-22T04:47:46.991Z,1009.73
2018-07-22T04:48:46.990Z,1009.74
2018-07-22T04:49:46.988Z,1009.74
2018-07-22T04:50:46.982Z,1009.72
2018-07-22T04:51:46.981Z,1009.75
2018-07-22T04:52:46.984Z,1009.75
2018-07-22T04:53:46.982Z,1009.80
2018-07-22T04:54:46.979Z,1009.82
2018-07-22T04:55:46.979Z,1009.84
2018-07-22T04:56:46.974Z,1009.87
2018-07-22T04:57:46.971Z,1009.86
2018-07-22T04:58:46.975Z,1009.89
2018-07-22T04:59:46.974Z,1009.89
2018-07-22T05:00:46.975Z,1009.95
2018-07-22T05:01:46.973Z,1009.95
2018-07-22T05:02:46.967Z,1010.03
2018-07-22T05:03:46.968Z,1010.06
2018-07-22T05:04:46.972Z,1010.07
2018-07-22T05:05:46.966Z,1010.10
2018-07-22T05:06:46.971Z,1010.07
2018-07-22T05:07:46.972Z,1010.12
2018-07-22T05:08:46.965Z,1010.15
2018-07-22T05:09:46.964Z,1010.17
2018-07-22T05:10:46.971Z,1010.18
2018-07-22T05:11:46.970Z,1010.17
2018-07-22T05:12:46.970Z,1010.20
2018-07-22T05:13:46.970Z,1010.26
2018-07-22T05:14:46.967Z,1010.30
2018-07-22T05:15:46.968Z,1010.29
2018-07-22T05:16:46.969Z,1010.39
2018-07-22T05:17:46.969Z,1010.32
2018-07-22T05:18:46.976Z,1010.40
2018-07-22T05:19:46.977Z,1010.40
2018-07-22T05:20:46.977Z,1010.34
2018-07-22T05:21:46.978Z,1010.37
2018-07-22T05:22:46.975Z,1010.35
2018-07-22T05:23:46.977Z,1010.35
2018-07-22T05:24:46.983Z,1010.37
2018-07-22T05:25:46.985Z,1010.43
2018-07-22T05:26:46.983Z,1010.42
2018-07-22T05:27:46.985Z,1010.46
2018-07-22T05:28:46.987Z,1010.49
2018-07-22T05:29:46.991Z,1010.50
2018-07-22T05:30:46.997Z,1010.53
2018-07-22T05:31:47.002Z,1010.55
2018-07-22T05:32:47.003Z,1010.54
2018-07-22T05:33:47.005Z,1010.57
2018-07-22T05:34:47.003Z,1010.56
2018-07-22T05:35:47.016Z,1010.60
2018-07-22T05:36:47.010Z,1010.62
2018-07-22T05:37:47.013Z,1010.67
2018-07-22T05:38:47.020Z,1010.70
2018-07-22T05:39:47.024Z,1010.66
2018-07-22T05:40:47.024Z,1010.66
2018-07-22T05:41:47.027Z,1010.73
2018-07-22T05:42:47.037Z,1010.73
2018-07-22T05:43:47.040Z,1010.74
2018-07-22T05:44:47.044Z,1010.75
2018-07-22T05:45:47.049Z,1010.81
2018-07-22T05:46:47.047Z,1010.84
2018-07-22T05:47:47.053Z,1010.86
2018-07-22T05:48:47.057Z,1010.90
2018-07-22T05:49:47.060Z,1010.98
2018-07-22T05:50:47.071Z,1010.99
2018-07-22T05:51:47.077Z,1010.95
2018-07-22T05:52:47.079Z,1011.03
2018-07-22T05:53:47.083Z,1011.00
2018-07-22T05:54:47.085Z,1011.07
2018-07-22T05:55:47.089Z,1011.04
2018-07-22T05:56:47.099Z,1011.08
2018-07-22T05:57:47.103Z,1011.11
2018-07-22T05:58:47.111Z,1011.13
2018-07-22T05:59:47.110Z,1011.19
2018-07-22T06:00:47.117Z,1011.20
2018-07-22T06:01:47.124Z,1011.22
2018-07-22T06:02:47.133Z,1011.27
2018-07-22T06:03:47.139Z,1011.33
2018-07-22T06:04:47.144Z,1011.33
2018-07-22T06:05:47.152Z,1011.34
2018-07-22T06:06:47.153Z,1011.36
2018-07-22T06:07:47.161Z,1011.38
2018-07-22T06:08:47.164Z,1011.43
2018-07-22T06:09:47.169Z,1011.42
2018-07-22T06:10:47.181Z,1011.47
2018-07-22T06:11:47.246Z,1011.46
2018-07-22T06:12:47.191Z,1011.47
2018-07-22T06:13:47.195Z,1011.45
2018-07-22T06:14:47.207Z,1011.49
2018-07-22T06:15:47.214Z,1011.49
2018-07-22T06:16:47.294Z,1011.46
2018-07-22T06:17:47.229Z,1011.47
2018-07-22T06:18:47.236Z,1011.54
2018-07-22T06:19:47.239Z,1011.54
2018-07-22T06:20:47.246Z,1011.54
2018-07-22T06:21:47.253Z,1011.55
2018-07-22T06:22:47.266Z,1011.53
2018-07-22T06:23:47.273Z,1011.61
2018-07-22T06:24:47.282Z,1011.67
2018-07-22T06:25:47.290Z,1011.69
2018-07-22T06:26:47.293Z,1011.61
2018-07-22T06:27:47.304Z,1011.67
2018-07-22T06:28:47.318Z,1011.70
2018-07-22T06:29:47.323Z,1011.69
2018-07-22T06:30:47.326Z,1011.70
2018-07-22T06:31:47.336Z,1011.75
2018-07-22T06:32:47.346Z,1011.78
2018-07-22T06:33:47.353Z,1011.77
2018-07-22T06:34:47.367Z,1011.80
2018-07-22T06:35:47.375Z,1011.81
2018-07-22T06:36:47.384Z,1011.83
2018-07-22T06:37:47.393Z,1011.85
2018-07-22T06:38:47.398Z,1011.87
2018-07-22T06:39:47.408Z,1011.85
2018-07-22T06:40:47.419Z,1011.87
2018-07-22T06:41:47.427Z,1011.89
2018-07-22T06:42:47.443Z,1011.88
2018-07-22T06:43:47.452Z,1011.90
2018-07-22T06:44:47.458Z,1011.96
2018-07-22T06:45:47.467Z,1011.95
2018-07-22T06:46:47.485Z,1011.95
2018-07-22T06:47:47.493Z,1011.91
2018-07-22T06:48:47.503Z,1011.93
2018-07-22T06:49:47.513Z,1011.94
2018-07-22T06:50:47.518Z,1011.97
2018-07-22T06:51:47.528Z,1011.93
2018-07-22T06:52:47.539Z,1011.97
2018-07-22T06:53:47.550Z,1012.01
2018-07-22T06:54:47.564Z,1012.00
2018-07-22T06:55:47.575Z,1012.02
2018-07-22T06:56:47.588Z,1012.07
2018-07-22T06:57:47.601Z,1012.12
2018-07-22T06:58:47.605Z,1012.11
2018-07-22T06:59:47.614Z,1012.16
2018-07-22T07:00:47.636Z,1012.12
2018-07-22T07:01:47.640Z,1012.14
2018-07-22T07:02:47.647Z,1012.15
2018-07-22T07:03:47.658Z,1012.25
2018-07-22T07:04:47.669Z,1012.18
2018-07-22T07:05:47.684Z,1012.22
2018-07-22T07:06:47.696Z,1012.23
2018-07-22T07:07:47.710Z,1012.29
2018-07-22T07:08:47.721Z,1012.28
2018-07-22T07:09:47.730Z,1012.30
2018-07-22T07:10:47.739Z,1012.32
2018-07-22T07:11:47.750Z,1012.33
2018-07-22T07:12:47.763Z,1012.34
2018-07-22T07:13:47.774Z,1012.38
2018-07-22T07:14:47.791Z,1012.38
2018-07-22T07:15:47.806Z,1012.39
2018-07-22T07:16:47.810Z,1012.36
2018-07-22T07:17:47.824Z,1012.38
2018-07-22T07:18:47.841Z,1012.38
2018-07-22T07:19:47.854Z,1012.38
2018-07-22T07:20:47.886Z,1012.40
2018-07-22T07:21:47.879Z,1012.37
2018-07-22T07:22:47.886Z,1012.34
2018-07-22T07:23:47.900Z,1012.38
2018-07-22T07:24:47.913Z,1012.38
2018-07-22T07:25:47.926Z,1012.40
2018-07-22T07:26:48.025Z,1012.38
2018-07-22T07:27:47.958Z,1012.42
2018-07-22T07:28:47.971Z,1012.45
2018-07-22T07:29:47.984Z,1012.47
2018-07-22T07:30:47.994Z,1012.46
2018-07-22T07:31:48.008Z,1012.43
2018-07-22T07:32:48.026Z,1012.45
2018-07-22T07:33:48.041Z,1012.43
2018-07-22T07:34:48.048Z,1012.38
2018-07-22T07:35:48.063Z,1012.42
2018-07-22T07:36:48.078Z,1012.40
2018-07-22T07:37:48.090Z,1011.45
2018-07-22T07:38:48.111Z,1011.50
2018-07-22T07:39:48.124Z,1011.50
2018-07-22T07:40:48.139Z,1011.46
2018-07-22T07:41:48.151Z,1011.44
2018-07-22T07:42:48.161Z,1011.46
2018-07-22T07:43:48.175Z,1011.46
2018-07-22T07:44:48.189Z,1011.40
2018-07-22T07:45:48.205Z,1011.36
2018-07-22T07:46:48.221Z,1011.25
2018-07-22T07:47:48.239Z,1011.20
2018-07-22T07:48:48.245Z,1011.27
2018-07-22T07:49:48.258Z,1011.18
2018-07-22T07:50:48.278Z,1011.25
2018-07-22T07:51:48.290Z,1011.35
2018-07-22T07:52:48.309Z,1011.42
2018-07-22T07:53:48.318Z,1011.21
2018-07-22T07:54:48.327Z,1011.35
2018-07-22T07:55:48.340Z,1011.34
2018-07-22T07:56:48.353Z,1011.34
2018-07-22T07:57:48.366Z,1011.36
2018-07-22T07:58:48.384Z,1011.35
2018-07-22T07:59:48.396Z,1011.37
2018-07-22T08:00:48.408Z,1011.37
2018-07-22T08:01:48.421Z,1011.39
2018-07-22T08:02:48.430Z,1011.40
2018-07-22T08:03:48.489Z,1011.39
2018-07-22T08:04:48.462Z,1011.42
2018-07-22T08:05:48.473Z,1011.44
2018-07-22T08:06:48.483Z,1011.48
2018-07-22T08:07:48.497Z,1011.48
2018-07-22T08:08:48.512Z,1011.46
2018-07-22T08:09:48.524Z,1011.47
2018-07-22T08:10:48.543Z,1011.46
2018-07-22T08:11:48.591Z,1011.49
2018-07-22T08:12:48.574Z,1011.48
2018-07-22T08:13:48.585Z,1011.47
2018-07-22T08:14:48.594Z,1011.44
2018-07-22T08:15:48.612Z,1011.46
2018-07-22T08:16:48.623Z,1011.47
2018-07-22T08:17:48.637Z,1011.51
2018-07-22T08:18:48.656Z,1011.47
2018-07-22T08:19:48.671Z,1011.47
2018-07-22T08:20:48.681Z,1011.49
2018-07-22T08:21:48.893Z,1011.48
2018-07-22T08:22:48.715Z,1011.51
2018-07-22T08:23:48.730Z,1011.53
2018-07-22T08:24:48.746Z,1011.53
2018-07-22T08:25:48.761Z,1011.52
2018-07-22T08:26:48.774Z,1011.45
2018-07-22T08:27:48.785Z,1011.46
2018-07-22T08:28:48.801Z,1011.52
2018-07-22T08:29:48.817Z,1011.51
2018-07-22T08:30:48.838Z,1011.52
2018-07-22T08:31:48.850Z,1011.50
2018-07-22T08:32:48.866Z,1011.53
2018-07-22T08:33:48.881Z,1011.53
2018-07-22T08:34:48.893Z,1011.54
2018-07-22T08:35:48.909Z,1011.47
2018-07-22T08:36:48.929Z,1011.49
2018-07-22T08:37:48.944Z,1011.56
2018-07-22T08:38:48.956Z,1011.53
2018-07-22T08:39:48.974Z,1011.49
2018-07-22T08:40:48.988Z,1011.50
2018-07-22T08:41:49.003Z,1011.47
2018-07-22T08:42:49.024Z,1011.49
2018-07-22T08:43:49.041Z,1011.44
2018-07-22T08:44:49.057Z,1011.47
2018-07-22T08:45:49.072Z,1011.50
2018-07-22T08:46:49.084Z,1011.49
2018-07-22T08:47:49.103Z,1011.48
2018-07-22T08:48:49.121Z,1011.47
2018-07-22T08:49:49.135Z,1011.53
2018-07-22T08:50:49.155Z,1011.48
2018-07-22T08:51:49.174Z,1011.47
2018-07-22T08:52:49.185Z,1011.52
2018-07-22T08:53:49.202Z,1011.48
2018-07-22T08:54:49.222Z,1011.43
2018-07-22T08:55:49.240Z,1011.48
2018-07-22T08:56:49.255Z,1011.49
2018-07-22T08:57:49.271Z,1011.46
2018-07-22T08:58:49.284Z,1011.44
2018-07-22T08:59:49.302Z,1011.46
2018-07-22T09:00:49.318Z,1011.55
2018-07-22T09:01:49.334Z,1011.51
2018-07-22T09:02:49.357Z,1011.50
2018-07-22T09:03:49.375Z,1011.48
2018-07-22T09:04:49.391Z,1011.46
2018-07-22T09:05:49.408Z,1011.50
2018-07-22T09:06:49.420Z,1011.52
2018-07-22T09:07:49.438Z,1011.52
2018-07-22T09:08:49.460Z,1011.54
2018-07-22T09:09:49.477Z,1011.47
2018-07-22T09:10:49.493Z,1011.48
2018-07-22T09:11:49.597Z,1011.48
2018-07-22T09:12:49.530Z,1011.56
2018-07-22T09:13:49.542Z,1011.57
2018-07-22T09:14:49.565Z,1011.56
2018-07-22T09:15:49.585Z,1011.55
2018-07-22T09:16:49.603Z,1011.61
2018-07-22T09:17:49.654Z,1011.65
2018-07-22T09:18:49.632Z,1011.59
2018-07-22T09:19:49.650Z,1011.62
2018-07-22T09:20:49.669Z,1011.64
2018-07-22T09:21:49.686Z,1011.61
2018-07-22T09:22:49.710Z,1011.59
2018-07-22T09:23:49.729Z,1011.65
2018-07-22T09:24:49.742Z,1011.67
2018-07-22T09:25:49.758Z,1011.68
2018-07-22T09:26:49.781Z,1011.67
2018-07-22T09:27:49.800Z,1011.65
2018-07-22T09:28:49.816Z,1011.66
2018-07-22T09:29:49.833Z,1011.60
2018-07-22T09:30:49.847Z,1011.58
2018-07-22T09:31:49.865Z,1011.65
2018-07-22T09:32:49.884Z,1011.67
2018-07-22T09:33:49.902Z,1011.68
2018-07-22T09:34:49.924Z,1011.65
2018-07-22T09:35:49.963Z,1011.68
2018-07-22T09:36:49.961Z,1011.64
2018-07-22T09:37:49.978Z,1011.65
2018-07-22T09:38:49.992Z,1011.65
2018-07-22T09:39:50.009Z,1011.66
2018-07-22T09:40:50.032Z,1011.68
2018-07-22T09:41:50.081Z,1011.71
2018-07-22T09:42:50.064Z,1011.70
2018-07-22T09:43:50.082Z,1011.68
2018-07-22T09:44:50.104Z,1011.67
2018-07-22T09:45:50.120Z,1011.73
2018-07-22T09:46:50.144Z,1011.76
2018-07-22T09:47:50.160Z,1011.71
2018-07-22T09:48:50.179Z,1011.71
2018-07-22T09:49:50.198Z,1011.68
2018-07-22T09:50:50.209Z,1011.71
2018-07-22T09:51:50.230Z,1011.71
2018-07-22T09:52:50.251Z,1011.70
2018-07-22T09:53:50.308Z,1011.70
2018-07-22T09:54:50.288Z,1011.68
2018-07-22T09:55:50.307Z,1011.71
2018-07-22T09:56:50.323Z,1011.69
2018-07-22T09:57:50.339Z,1011.69
2018-07-22T09:58:50.362Z,1011.66
2018-07-22T09:59:50.382Z,1011.66
2018-07-22T10:00:50.402Z,1011.67
2018-07-22T10:01:50.419Z,1011.73
2018-07-22T10:02:50.435Z,1011.67
2018-07-22T10:03:50.453Z,1011.68
2018-07-22T10:04:50.517Z,1011.70
2018-07-22T10:05:50.490Z,1011.73
2018-07-22T10:06:50.515Z,1011.67
2018-07-22T10:07:50.532Z,1011.65
2018-07-22T10:08:50.552Z,1011.64
2018-07-22T10:09:50.569Z,1011.68
2018-07-22T10:10:50.583Z,1011.58
2018-07-22T10:11:50.602Z,1011.57
2018-07-22T10:12:50.625Z,1011.58
2018-07-22T10:13:50.644Z,1011.63
2018-07-22T10:14:50.713Z,1011.57
2018-07-22T10:15:50.677Z,1011.57
2018-07-22T10:16:50.696Z,1011.57
2018-07-22T10:17:50.713Z,1011.55
2018-07-22T10:18:50.736Z,1011.50
2018-07-22T10:19:50.757Z,1011.55
2018-07-22T10:20:50.777Z,1011.56
2018-07-22T10:21:50.800Z,1011.55
2018-07-22T10:22:50.808Z,1011.57
2018-07-22T10:23:50.825Z,1011.57
2018-07-22T10:24:50.844Z,1011.58
2018-07-22T10:25:50.862Z,1011.60
2018-07-22T10:26:50.886Z,1011.58
2018-07-22T10:27:50.904Z,1011.59
2018-07-22T10:28:50.918Z,1011.54
2018-07-22T10:29:50.937Z,1011.56
2018-07-22T10:30:50.960Z,1011.56
2018-07-22T10:31:50.978Z,1011.59
2018-07-22T10:32:50.998Z,1011.56
2018-07-22T10:33:51.016Z,1011.58
2018-07-22T10:34:51.030Z,1011.64
2018-07-22T10:35:51.100Z,1011.57
2018-07-22T10:36:51.072Z,1011.56
2018-07-22T10:37:51.086Z,1011.55
2018-07-22T10:38:51.110Z,1011.56
2018-07-22T10:39:51.128Z,1011.57
2018-07-22T10:40:51.187Z,1011.55
2018-07-22T10:41:51.168Z,1011.53
2018-07-22T10:42:51.178Z,1011.49
2018-07-22T10:43:51.197Z,1011.57
2018-07-22T10:44:51.219Z,1011.55
2018-07-22T10:45:51.236Z,1011.50
2018-07-22T10:46:51.249Z,1011.52
2018-07-22T10:47:51.267Z,1011.52
2018-07-22T10:48:51.286Z,1011.43
2018-07-22T10:49:51.303Z,1011.46
2018-07-22T10:50:51.345Z,1011.45
2018-07-22T10:51:51.344Z,1011.46
2018-07-22T10:52:51.363Z,1011.46
2018-07-22T10:53:51.381Z,1011.47
2018-07-22T10:54:51.390Z,1011.45
2018-07-22T10:55:51.410Z,1011.41
2018-07-22T10:56:51.427Z,1011.38
2018-07-22T10:57:51.442Z,1011.46
2018-07-22T10:58:51.465Z,1011.47
2018-07-22T10:59:51.484Z,1011.42
2018-07-22T11:00:51.493Z,1011.37
2018-07-22T11:01:51.510Z,1011.37
2018-07-22T11:02:51.531Z,1011.44
2018-07-22T11:03:51.549Z,1011.41
2018-07-22T11:04:51.568Z,1011.41
2018-07-22T11:05:51.583Z,1011.44
2018-07-22T11:06:51.594Z,1011.40
2018-07-22T11:07:51.611Z,1011.40
2018-07-22T11:08:51.628Z,1011.41
2018-07-22T11:09:51.644Z,1011.34
2018-07-22T11:10:51.666Z,1011.36
2018-07-22T11:11:51.683Z,1011.36
2018-07-22T11:12:51.700Z,1011.42
2018-07-22T11:13:51.715Z,1011.38
2018-07-22T11:14:51.832Z,1011.43
2018-07-22T11:15:51.745Z,1011.43
2018-07-22T11:16:51.767Z,1011.35
2018-07-22T11:17:51.785Z,1011.36
2018-07-22T11:18:51.846Z,1011.36
2018-07-22T11:19:51.813Z,1011.36
2018-07-22T11:20:51.835Z,1011.33
2018-07-22T11:21:51.847Z,1011.35
2018-07-22T11:22:51.869Z,1011.32
2018-07-22T11:23:51.886Z,1011.27
2018-07-22T11:24:51.904Z,1011.18
2018-07-22T11:25:51.920Z,1011.14
2018-07-22T11:26:51.932Z,1010.97
2018-07-22T11:27:51.948Z,1010.98
2018-07-22T11:28:52.101Z,1010.98
2018-07-22T11:29:51.981Z,1010.96
2018-07-22T11:30:52.000Z,1010.97
2018-07-22T11:31:52.016Z,1010.99
2018-07-22T11:32:52.028Z,1010.99
2018-07-22T11:33:52.042Z,1010.93
2018-07-22T11:34:52.060Z,1010.92
2018-07-22T11:35:52.114Z,1010.88
2018-07-22T11:36:52.091Z,1010.85
2018-07-22T11:37:52.105Z,1010.84
2018-07-22T11:38:52.112Z,1010.81
2018-07-22T11:39:52.125Z,1010.90
2018-07-22T11:40:52.140Z,1010.86
2018-07-22T11:41:52.152Z,1010.87
2018-07-22T11:42:52.169Z,1010.79
2018-07-22T11:43:52.253Z,1010.81
2018-07-22T11:44:52.194Z,1010.79
2018-07-22T11:45:52.205Z,1010.81
2018-07-22T11:46:52.212Z,1010.78
2018-07-22T11:47:52.224Z,1010.71
2018-07-22T11:48:52.242Z,1010.72
2018-07-22T11:49:52.250Z,1010.70
2018-07-22T11:50:52.257Z,1010.71
2018-07-22T11:51:52.267Z,1010.67
2018-07-22T11:52:52.277Z,1010.63
2018-07-22T11:53:52.289Z,1010.60
2018-07-22T11:54:52.304Z,1010.67
2018-07-22T11:55:52.312Z,1010.62
2018-07-22T11:56:52.323Z,1010.59
2018-07-22T11:57:52.334Z,1010.62
2018-07-22T11:58:52.391Z,1010.58
2018-07-22T11:59:52.347Z,1010.61
2018-07-22T12:00:52.358Z,1010.61
2018-07-22T12:01:52.370Z,1010.55
2018-07-22T12:02:52.382Z,1010.56
2018-07-22T12:03:52.391Z,1010.60
2018-07-22T12:04:52.396Z,1010.57
2018-07-22T12:05:52.469Z,1010.54